createdAt,value
2023-01-05T00:01:54.733Z,99489.03
2023-01-05T00:04:23.860Z,99487.19
2023-01-05T00:06:54.122Z,99484.53
2023-01-05T00:09:22.701Z,99472.47
2023-01-05T00:12:08.589Z,99465.84
2023-01-05T00:14:54.562Z,99470.31
2023-01-05T00:17:42.311Z,99466.19
2023-01-05T00:20:33.607Z,99459.25
2023-01-05T00:23:03.891Z,99456.59
2023-01-05T00:25:34.936Z,99424.00
2023-01-05T00:28:03.661Z,99447.34
2023-01-05T00:30:35.754Z,99449.66
2023-01-05T00:33:04.401Z,99442.69
2023-01-05T00:35:36.443Z,99454.28
2023-01-05T00:38:08.420Z,99439.72
2023-01-05T00:40:43.199Z,99439.88
2023-01-05T00:43:16.054Z,99438.41
2023-01-05T00:45:52.873Z,99430.78
2023-01-05T00:48:24.709Z,99426.16
2023-01-05T00:51:00.121Z,99423.50
2023-01-05T00:53:33.772Z,99427.97
2023-01-05T00:56:07.016Z,99415.38
2023-01-05T00:58:40.949Z,99417.53
2023-01-05T01:01:14.663Z,99421.84
2023-01-05T01:03:44.829Z,99437.06
2023-01-05T01:06:19.048Z,99425.28
2023-01-05T01:08:54.466Z,99405.94
2023-01-05T01:11:24.004Z,99418.66
2023-01-05T01:13:56.020Z,99404.63
2023-01-05T01:16:27.454Z,99412.69
2023-01-05T01:19:05.440Z,99416.97
2023-01-05T01:21:35.784Z,99410.22
2023-01-05T01:24:06.754Z,99407.56
2023-01-05T01:26:36.483Z,99414.66
2023-01-05T01:29:06.047Z,99418.66
2023-01-05T01:31:40.383Z,99406.53
2023-01-05T01:34:10.257Z,99397.75
2023-01-05T01:36:41.068Z,99399.88
2023-01-05T01:42:09.438Z,99389.59
2023-01-05T01:44:55.667Z,99391.19
2023-01-05T01:47:29.809Z,99406.41
2023-01-05T01:50:01.136Z,99399.66
2023-01-05T01:52:32.991Z,99395.66
2023-01-05T01:55:05.714Z,99383.66
2023-01-05T01:57:35.498Z,99401.16
2023-01-05T02:00:07.212Z,99395.88
2023-01-05T02:02:36.085Z,99384.91
2023-01-05T02:05:09.693Z,99378.13
2023-01-05T02:07:45.563Z,99394.34
2023-01-05T02:10:17.785Z,99393.69
2023-01-05T02:13:03.401Z,99397.69
2023-01-05T02:15:43.685Z,99378.47
2023-01-05T02:18:29.209Z,99389.97
2023-01-05T02:21:10.373Z,99403.25
2023-01-05T02:24:16.493Z,99385.22
2023-01-05T02:27:10.803Z,99375.00
2023-01-05T02:30:14.501Z,99381.31
2023-01-05T02:32:51.767Z,99375.69
2023-01-05T02:35:31.523Z,99379.16
2023-01-05T02:38:09.351Z,99380.63
2023-01-05T02:40:42.823Z,99377.81
2023-01-05T02:43:13.302Z,99375.66
2023-01-05T02:45:41.885Z,99350.59
2023-01-05T02:48:11.825Z,99351.75
2023-01-05T02:50:44.638Z,99348.41
2023-01-05T02:53:20.845Z,99359.50
2023-01-05T02:55:53.798Z,99366.31
2023-01-05T02:58:27.324Z,99360.50
2023-01-05T03:01:02.116Z,99365.97
2023-01-05T03:03:37.547Z,99367.25
2023-01-05T03:06:11.360Z,99389.78
2023-01-05T03:08:43.761Z,99381.00
2023-01-05T03:11:30.648Z,99393.78
2023-01-05T03:14:05.086Z,99368.97
2023-01-05T03:16:38.078Z,99376.94
2023-01-05T03:19:30.712Z,99369.00
2023-01-05T03:22:19.138Z,99385.41
2023-01-05T03:25:04.933Z,99377.59
2023-01-05T03:27:51.734Z,99381.13
2023-01-05T03:30:37.740Z,99378.31
2023-01-05T03:33:29.731Z,99377.69
2023-01-05T03:36:02.651Z,99378.03
2023-01-05T03:38:36.681Z,99388.81
2023-01-05T03:41:10.442Z,99375.06
2023-01-05T03:43:39.291Z,99389.28
2023-01-05T03:46:12.753Z,99389.63
2023-01-05T03:48:41.536Z,99373.41
2023-01-05T03:51:11.663Z,99384.13
2023-01-05T03:53:40.270Z,99365.94
2023-01-05T03:56:09.167Z,99375.66
2023-01-05T03:58:37.751Z,99380.59
2023-01-05T04:01:07.206Z,99367.06
2023-01-05T04:03:37.442Z,99390.28
2023-01-05T04:06:06.134Z,99386.00
2023-01-05T04:08:36.202Z,99371.09
2023-01-05T04:11:15.967Z,99399.44
2023-01-05T04:13:44.694Z,99408.91
2023-01-05T04:16:14.082Z,99411.59
2023-01-05T04:18:42.758Z,99394.41
2023-01-05T04:21:11.268Z,99404.34
2023-01-05T04:23:41.256Z,99391.44
2023-01-05T04:26:09.943Z,99396.53
2023-01-05T04:28:38.629Z,99400.69
2023-01-05T04:31:07.169Z,99394.41
2023-01-05T04:33:36.611Z,99395.41
2023-01-05T04:36:05.330Z,99394.22
2023-01-05T04:38:33.917Z,99405.31
2023-01-05T04:41:03.874Z,99416.56
2023-01-05T04:43:32.446Z,99422.50
2023-01-05T04:46:01.104Z,99424.78
2023-01-05T04:48:32.082Z,99413.22
2023-01-05T04:51:01.054Z,99437.53
2023-01-05T04:53:30.674Z,99419.81
2023-01-05T04:55:59.285Z,99406.78
2023-01-05T04:58:29.276Z,99412.88
2023-01-05T05:00:57.869Z,99398.34
2023-01-05T05:03:32.593Z,99391.72
2023-01-05T05:06:03.824Z,99391.41
2023-01-05T05:08:32.416Z,99410.56
2023-01-05T05:11:01.210Z,99423.13
2023-01-05T05:13:31.545Z,99406.44
2023-01-05T05:16:00.090Z,99415.53
2023-01-05T05:18:28.727Z,99416.44
2023-01-05T05:20:59.682Z,99430.31
2023-01-05T05:23:28.249Z,99418.06
2023-01-05T05:25:56.724Z,99397.09
2023-01-05T05:28:28.591Z,99412.75
2023-01-05T05:30:59.330Z,99399.19
2023-01-05T05:33:28.019Z,99396.84
2023-01-05T05:35:56.616Z,99417.19
2023-01-05T05:38:26.715Z,99419.84
2023-01-05T05:40:55.244Z,99431.19
2023-01-05T05:43:23.719Z,99435.47
2023-01-05T05:45:52.276Z,99440.75
2023-01-05T05:48:22.200Z,99425.44
2023-01-05T05:50:50.727Z,99427.59
2023-01-05T05:53:19.306Z,99424.28
2023-01-05T05:55:50.241Z,99425.13
2023-01-05T05:58:19.146Z,99435.84
2023-01-05T06:00:48.347Z,99433.72
2023-01-05T06:03:16.896Z,99428.22
2023-01-05T06:05:47.700Z,99439.66
2023-01-05T06:08:16.183Z,99439.66
2023-01-05T06:10:44.758Z,99437.03
2023-01-05T06:13:13.451Z,99446.75
2023-01-05T06:15:42.017Z,99444.09
2023-01-05T06:18:11.136Z,99460.63
2023-01-05T06:20:39.610Z,99451.72
2023-01-05T06:23:09.725Z,99442.63
2023-01-05T06:25:38.337Z,99457.63
2023-01-05T06:28:06.929Z,99455.66
2023-01-05T06:30:35.602Z,99455.97
2023-01-05T06:33:04.194Z,99454.31
2023-01-05T06:35:33.519Z,99442.41
2023-01-05T06:38:02.056Z,99436.13
2023-01-05T06:40:32.040Z,99455.16
2023-01-05T06:43:00.609Z,99435.16
2023-01-05T06:45:29.249Z,99447.56
2023-01-05T06:47:59.284Z,99466.75
2023-01-05T06:50:27.806Z,99456.19
2023-01-05T06:52:56.291Z,99442.81
2023-01-05T06:55:24.880Z,99468.28
2023-01-05T06:58:00.495Z,99458.53
2023-01-05T07:00:30.177Z,99459.03
2023-01-05T07:02:59.144Z,99459.69
2023-01-05T07:05:27.626Z,99450.47
2023-01-05T07:07:56.423Z,99461.03
2023-01-05T07:10:24.960Z,99457.75
2023-01-05T07:12:54.882Z,99464.53
2023-01-05T07:15:23.396Z,99457.78
2023-01-05T07:17:52.004Z,99457.78
2023-01-05T07:20:20.637Z,99461.25
2023-01-05T07:22:49.277Z,99467.22
2023-01-05T07:25:17.972Z,99467.19
2023-01-05T07:27:56.896Z,99472.66
2023-01-05T07:30:25.718Z,99471.00
2023-01-05T07:32:54.242Z,99480.16
2023-01-05T07:35:22.971Z,99466.75
2023-01-05T07:37:51.509Z,99476.34
2023-01-05T07:40:20.157Z,99472.03
2023-01-05T07:42:52.577Z,99483.28
2023-01-05T07:45:23.006Z,99480.97
2023-01-05T07:47:51.657Z,99488.09
2023-01-05T07:50:20.227Z,99471.59
2023-01-05T07:52:48.828Z,99466.81
2023-01-05T07:55:17.361Z,99486.13
2023-01-05T07:57:47.216Z,99481.84
2023-01-05T08:00:16.199Z,99486.81
2023-01-05T08:02:46.760Z,99474.88
2023-01-05T08:05:15.317Z,99483.69
2023-01-05T08:07:43.927Z,99496.91
2023-01-05T08:10:26.606Z,99486.31
2023-01-05T08:13:12.623Z,99491.13
2023-01-05T08:15:43.675Z,99485.16
2023-01-05T08:18:17.498Z,99488.31
2023-01-05T08:20:51.811Z,99491.31
2023-01-05T08:23:26.010Z,99479.41
2023-01-05T08:25:55.901Z,99498.75
2023-01-05T08:28:28.386Z,99499.59
2023-01-05T08:31:06.151Z,99481.72
2023-01-05T08:33:36.362Z,99490.66
2023-01-05T08:36:10.048Z,99490.34
2023-01-05T08:38:38.843Z,99478.44
2023-01-05T08:41:07.597Z,99507.88
2023-01-05T08:43:37.878Z,99490.16
2023-01-05T08:46:06.638Z,99493.66
2023-01-05T08:48:36.877Z,99503.25
2023-01-05T08:51:07.493Z,99498.09
2023-01-05T08:53:36.422Z,99502.59
2023-01-05T08:56:04.856Z,99498.09
2023-01-05T08:58:33.278Z,99505.56
2023-01-05T09:01:01.833Z,99488.84
2023-01-05T09:03:30.379Z,99496.63
2023-01-05T09:06:02.948Z,99498.94
2023-01-05T09:08:31.929Z,99523.44
2023-01-05T09:11:08.289Z,99511.00
2023-01-05T09:13:36.753Z,99512.66
2023-01-05T09:16:07.311Z,99474.78
2023-01-05T09:18:37.200Z,99510.53
2023-01-05T09:21:07.558Z,99506.88
2023-01-05T09:23:36.526Z,99510.53
2023-01-05T09:26:06.424Z,99502.72
2023-01-05T09:28:36.617Z,99508.53
2023-01-05T09:31:09.809Z,99503.22
2023-01-05T09:33:38.354Z,99518.78
2023-01-05T09:36:09.666Z,99512.03
2023-01-05T09:38:43.369Z,99485.84
2023-01-05T09:41:19.865Z,99519.78
2023-01-05T09:43:50.368Z,99527.06
2023-01-05T09:46:23.605Z,99538.00
2023-01-05T09:48:55.621Z,99542.41
2023-01-05T09:51:25.444Z,99559.47
2023-01-05T09:53:54.049Z,99549.19
2023-01-05T09:57:08.145Z,99548.84
2023-01-05T09:59:27.585Z,99558.59
2023-01-05T10:02:00.115Z,99547.84
2023-01-05T10:04:31.193Z,99553.16
2023-01-05T10:07:07.155Z,99556.13
2023-01-05T10:09:40.393Z,99535.13
2023-01-05T10:12:38.258Z,99538.78
2023-01-05T10:15:11.527Z,99543.59
2023-01-05T10:17:43.488Z,99542.59
2023-01-05T10:20:18.060Z,99533.34
2023-01-05T10:22:59.456Z,99493.31
2023-01-05T10:25:36.216Z,99526.88
2023-01-05T10:28:20.997Z,99531.50
2023-01-05T10:30:59.155Z,99503.56
2023-01-05T10:33:53.589Z,99490.00
2023-01-05T10:39:37.389Z,99492.66
2023-01-05T10:42:12.335Z,99499.09
2023-01-05T10:44:54.648Z,99466.50
2023-01-05T10:47:24.581Z,99490.97
2023-01-05T10:49:53.394Z,99531.88
2023-01-05T10:52:24.282Z,99571.44
2023-01-05T10:54:58.587Z,99595.03
2023-01-05T10:57:40.328Z,99600.19
2023-01-05T11:00:17.093Z,99579.94
2023-01-05T11:02:51.276Z,99584.06
2023-01-05T11:05:29.569Z,99585.50
2023-01-05T11:08:00.777Z,99579.09
2023-01-05T11:10:34.491Z,99572.31
2023-01-05T11:13:09.028Z,99592.16
2023-01-05T11:15:44.474Z,99586.63
2023-01-05T11:18:27.190Z,99595.31
2023-01-05T11:21:23.548Z,99571.34
2023-01-05T11:23:54.334Z,99572.47
2023-01-05T11:26:30.812Z,99580.75
2023-01-05T11:29:20.318Z,99578.81
2023-01-05T11:31:53.901Z,99562.50
2023-01-05T11:34:35.323Z,99578.88
2023-01-05T11:37:08.412Z,99598.53
2023-01-05T11:39:42.527Z,99610.25
2023-01-05T11:42:24.715Z,99597.78
2023-01-05T11:44:56.928Z,99600.41
2023-01-05T11:47:30.508Z,99590.81
2023-01-05T11:50:08.540Z,99599.97
2023-01-05T11:52:39.973Z,99597.72
2023-01-05T11:55:34.149Z,99607.13
2023-01-05T11:58:24.925Z,99613.03
2023-01-05T12:01:19.077Z,99613.16
2023-01-05T12:04:02.865Z,99594.28
2023-01-05T12:07:02.388Z,99598.44
2023-01-05T12:09:35.316Z,99599.81
2023-01-05T12:12:40.571Z,99590.31
2023-01-05T12:15:58.486Z,99606.31
2023-01-05T12:18:51.856Z,99601.47
2023-01-05T12:21:25.172Z,99595.44
2023-01-05T12:24:14.250Z,99611.19
2023-01-05T12:26:51.538Z,99618.50
2023-01-05T12:36:00.615Z,99636.38
2023-01-05T12:38:49.024Z,99622.19
2023-01-05T12:41:43.678Z,99621.75
2023-01-05T12:44:47.508Z,99615.94
2023-01-05T12:47:37.825Z,99590.41
2023-01-05T12:50:23.640Z,99604.25
2023-01-05T12:52:56.986Z,99613.25
2023-01-05T12:55:31.827Z,99609.75
2023-01-05T12:58:05.965Z,99619.69
2023-01-05T13:00:42.292Z,99627.94
2023-01-05T13:03:18.738Z,99612.91
2023-01-05T13:05:57.331Z,99621.03
2023-01-05T13:08:33.157Z,99617.72
2023-01-05T13:11:06.335Z,99623.53
2023-01-05T13:13:39.648Z,99617.59
2023-01-05T13:16:16.787Z,99619.63
2023-01-05T13:18:52.513Z,99624.81
2023-01-05T13:21:24.647Z,99632.66
2023-01-05T13:23:56.963Z,99622.28
2023-01-05T13:26:25.451Z,99626.09
2023-01-05T13:28:57.358Z,99620.81
2023-01-05T13:32:02.368Z,99622.38
2023-01-05T13:34:53.798Z,99616.97
2023-01-05T13:40:41.427Z,99619.28
2023-01-05T13:43:27.502Z,99624.28
2023-01-05T13:46:22.525Z,99610.91
2023-01-05T13:49:04.827Z,99599.88
2023-01-05T13:51:54.582Z,99611.81
2023-01-05T13:54:54.364Z,99624.69
2023-01-05T13:57:25.518Z,99644.00
2023-01-05T14:00:06.348Z,99608.44
2023-01-05T14:02:39.101Z,99641.16
2023-01-05T14:05:17.097Z,99639.84
2023-01-05T14:07:45.705Z,99646.59
2023-01-05T14:10:28.258Z,99648.56
2023-01-05T14:12:57.015Z,99673.53
2023-01-05T14:15:43.470Z,99661.75
2023-01-05T14:18:15.529Z,99662.59
2023-01-05T14:20:47.013Z,99664.91
2023-01-05T14:23:51.814Z,99677.75
2023-01-05T14:26:56.406Z,99663.88
2023-01-05T14:29:59.586Z,99691.97
2023-01-05T14:32:30.421Z,99697.59
2023-01-05T14:35:04.071Z,99697.59
2023-01-05T14:37:37.997Z,99700.38
2023-01-05T14:40:22.592Z,99707.78
2023-01-05T14:42:52.917Z,99721.00
2023-01-05T14:45:25.204Z,99702.44
2023-01-05T14:47:56.929Z,99712.69
2023-01-05T14:50:35.656Z,99732.88
2023-01-05T14:53:13.166Z,99720.81
2023-01-05T14:55:43.522Z,99721.25
2023-01-05T14:58:51.043Z,99726.53
2023-01-05T15:01:24.930Z,99736.06
2023-01-05T15:03:56.824Z,99739.69
2023-01-05T15:06:32.677Z,99748.75
2023-01-05T15:09:19.795Z,99743.31
2023-01-05T15:12:11.656Z,99759.34
2023-01-05T15:15:12.403Z,99771.28
2023-01-05T15:18:05.683Z,99765.97
2023-01-05T15:21:17.066Z,99755.81
2023-01-05T15:24:21.320Z,99776.31
2023-01-05T15:27:07.032Z,99763.78
2023-01-05T15:29:52.526Z,99777.47
2023-01-05T15:32:23.743Z,99780.56
2023-01-05T15:35:02.210Z,99777.91
2023-01-05T15:37:35.978Z,99783.50
2023-01-05T15:40:07.926Z,99783.13
2023-01-05T15:42:40.956Z,99784.44
2023-01-05T15:45:18.745Z,99791.38
2023-01-05T15:47:48.737Z,99799.31
2023-01-05T15:50:23.226Z,99796.16
2023-01-05T15:52:56.366Z,99810.78
2023-01-05T15:55:26.191Z,99803.53
2023-01-05T15:57:57.541Z,99817.97
2023-01-05T16:00:29.797Z,99819.78
2023-01-05T16:02:58.877Z,99832.22
2023-01-05T16:05:30.435Z,99836.91
2023-01-05T16:08:00.173Z,99829.28
2023-01-05T16:10:32.833Z,99831.94
2023-01-05T16:13:06.872Z,99851.94
2023-01-05T16:15:40.722Z,99847.47
2023-01-05T16:18:15.613Z,99869.59
2023-01-05T16:20:50.131Z,99858.94
2023-01-05T16:23:24.861Z,99862.13
2023-01-05T16:25:57.782Z,99872.25
2023-01-05T16:28:27.598Z,99881.31
2023-01-05T16:30:56.713Z,99888.09
2023-01-05T16:33:35.147Z,99875.19
2023-01-05T16:36:14.863Z,99887.59
2023-01-05T16:38:43.322Z,99885.06
2023-01-05T16:41:14.659Z,99900.94
2023-01-05T16:43:46.267Z,99896.25
2023-01-05T16:46:36.839Z,99917.09
2023-01-05T16:49:34.091Z,99920.88
2023-01-05T16:52:07.802Z,99926.88
2023-01-05T16:54:39.711Z,99929.13
2023-01-05T16:57:40.193Z,99942.78
2023-01-05T17:00:37.335Z,99943.63
2023-01-05T17:03:28.185Z,99936.28
2023-01-05T17:05:57.710Z,99952.59
2023-01-05T17:08:30.806Z,99955.66
2023-01-05T17:11:00.584Z,99970.38
2023-01-05T17:13:37.199Z,99957.28
2023-01-05T17:16:06.165Z,99964.25
2023-01-05T17:18:34.830Z,99967.84
2023-01-05T17:21:06.447Z,99950.25
2023-01-05T17:23:40.522Z,99971.75
2023-01-05T17:26:12.834Z,99975.09
2023-01-05T17:28:43.032Z,99989.00
2023-01-05T17:33:40.463Z,100000.25
2023-01-05T17:36:09.340Z,100005.94
2023-01-05T17:38:39.728Z,100000.63
2023-01-05T17:41:08.465Z,99994.56
2023-01-05T17:43:37.056Z,100025.69
2023-01-05T17:46:05.950Z,100017.88
2023-01-05T17:48:34.602Z,100032.91
2023-01-05T17:51:03.393Z,100028.88
2023-01-05T17:53:31.891Z,100043.75
2023-01-05T17:58:30.497Z,100037.78
2023-01-05T18:00:58.916Z,100047.94
2023-01-05T18:03:27.575Z,100048.22
2023-01-05T18:05:55.968Z,100057.13
2023-01-05T18:08:24.634Z,100066.88
2023-01-05T18:10:53.127Z,100072.16
2023-01-05T18:13:23.154Z,100079.38
2023-01-05T18:15:53.466Z,100064.38
2023-01-05T18:18:22.421Z,100088.00
2023-01-05T18:20:51.935Z,100083.41
2023-01-05T18:23:21.710Z,100102.84
2023-01-05T18:25:50.227Z,100102.16
2023-01-05T18:28:18.872Z,100117.16
2023-01-05T18:30:48.756Z,100106.34
2023-01-05T18:33:17.556Z,100110.78
2023-01-05T18:35:46.192Z,100120.22
2023-01-05T18:38:14.765Z,100115.63
2023-01-05T18:40:48.524Z,100120.78
2023-01-05T18:43:16.975Z,100130.50
2023-01-05T18:45:45.608Z,100135.50
2023-01-05T18:48:15.582Z,100146.63
2023-01-05T18:50:50.048Z,100155.47
2023-01-05T18:53:18.873Z,100171.03
2023-01-05T18:55:47.365Z,100190.31
2023-01-05T18:58:16.383Z,100180.38
2023-01-05T19:00:46.727Z,100192.25
2023-01-05T19:03:16.915Z,100190.38
2023-01-05T19:05:46.152Z,100204.94
2023-01-05T19:08:15.559Z,100199.88
2023-01-05T19:10:44.121Z,100218.50
2023-01-05T19:13:12.503Z,100222.34
2023-01-05T19:15:41.017Z,100216.13
2023-01-05T19:18:09.592Z,100223.31
2023-01-05T19:20:39.643Z,100218.19
2023-01-05T19:23:08.513Z,100229.81
2023-01-05T19:25:37.081Z,100238.44
2023-01-05T19:28:05.528Z,100240.88
2023-01-05T19:30:34.113Z,100243.66
2023-01-05T19:33:02.645Z,100230.84
2023-01-05T19:35:31.786Z,100253.16
2023-01-05T19:38:02.928Z,100257.47
2023-01-05T19:40:33.994Z,100250.53
2023-01-05T19:43:02.570Z,100267.44
2023-01-05T19:45:31.177Z,100277.13
2023-01-05T19:48:00.226Z,100273.78
2023-01-05T19:50:28.957Z,100272.38
2023-01-05T19:52:57.446Z,100288.19
2023-01-05T19:55:27.338Z,100277.91
2023-01-05T19:57:55.798Z,100282.34
2023-01-05T20:00:24.302Z,100282.53
2023-01-05T20:02:52.842Z,100292.38
2023-01-05T20:05:21.575Z,100299.09
2023-01-05T20:07:50.049Z,100309.16
2023-01-05T20:10:18.737Z,100303.28
2023-01-05T20:12:48.789Z,100308.22
2023-01-05T20:15:17.324Z,100302.00
2023-01-05T20:17:46.077Z,100319.00
2023-01-05T20:20:15.463Z,100311.81
2023-01-05T20:22:44.157Z,100335.50
2023-01-05T20:25:12.643Z,100336.13
2023-01-05T20:27:41.599Z,100336.81
2023-01-05T20:30:13.392Z,100339.38
2023-01-05T20:32:42.238Z,100355.97
2023-01-05T20:35:13.493Z,100352.03
2023-01-05T20:37:42.346Z,100371.41
2023-01-05T20:40:11.456Z,100367.94
2023-01-05T20:42:40.368Z,100377.88
2023-01-05T20:45:10.965Z,100382.44
2023-01-05T20:47:47.434Z,100375.50
2023-01-05T20:50:17.012Z,100397.50
2023-01-05T20:52:45.859Z,100394.16
2023-01-05T20:55:17.930Z,100384.59
2023-01-05T20:57:47.612Z,100406.69
2023-01-05T21:00:18.777Z,100395.69
2023-01-05T21:02:48.606Z,100405.16
2023-01-05T21:05:17.900Z,100404.44
2023-01-05T21:07:46.832Z,100397.38
2023-01-05T21:10:15.834Z,100402.53
2023-01-05T21:12:44.417Z,100414.25
2023-01-05T21:15:20.042Z,100412.91
2023-01-05T21:17:49.080Z,100429.66
2023-01-05T21:20:24.139Z,100440.56
2023-01-05T21:22:54.750Z,100443.44
2023-01-05T21:25:24.994Z,100458.03
2023-01-05T21:27:54.263Z,100460.88
2023-01-05T21:30:24.151Z,100466.50
2023-01-05T21:32:52.963Z,100472.38
2023-01-05T21:35:21.420Z,100468.91
2023-01-05T21:37:49.911Z,100472.13
2023-01-05T21:40:19.109Z,100469.03
2023-01-05T21:42:50.555Z,100474.72
2023-01-05T21:45:20.170Z,100472.31
2023-01-05T21:47:55.418Z,100481.56
2023-01-05T21:50:41.055Z,100468.72
2023-01-05T21:53:32.260Z,100490.72
2023-01-05T21:56:18.104Z,100490.97
2023-01-05T21:58:47.349Z,100491.56
2023-01-05T22:01:15.916Z,100499.44
2023-01-05T22:03:46.771Z,100487.59
2023-01-05T22:06:15.358Z,100492.03
2023-01-05T22:08:43.902Z,100500.25
2023-01-05T22:11:12.804Z,100494.63
2023-01-05T22:13:41.709Z,100497.31
2023-01-05T22:16:10.714Z,100513.94
2023-01-05T22:18:40.728Z,100517.38
2023-01-05T22:21:12.918Z,100527.16
2023-01-05T22:23:41.663Z,100529.28
2023-01-05T22:26:13.040Z,100533.59
2023-01-05T22:28:43.497Z,100540.25
2023-01-05T22:31:14.956Z,100532.59
2023-01-05T22:33:46.952Z,100549.44
2023-01-05T22:36:19.044Z,100549.44
2023-01-05T22:38:49.379Z,100548.31
2023-01-05T22:41:20.194Z,100548.09
2023-01-05T22:43:49.283Z,100554.41
2023-01-05T22:46:19.792Z,100559.44
2023-01-05T22:48:49.904Z,100555.97
2023-01-05T22:51:22.544Z,100540.94
2023-01-05T22:53:51.482Z,100550.72
2023-01-05T22:56:21.445Z,100565.53
2023-01-05T22:58:50.610Z,100569.09
2023-01-05T23:01:23.510Z,100567.44
2023-01-05T23:03:53.042Z,100574.22
2023-01-05T23:06:23.514Z,100583.63
2023-01-05T23:08:52.918Z,100586.13
2023-01-05T23:11:24.224Z,100591.28
2023-01-05T23:13:53.678Z,100577.72
2023-01-05T23:16:22.957Z,100595.38
2023-01-05T23:18:51.483Z,100575.38
2023-01-05T23:21:21.269Z,100597.84
2023-01-05T23:23:52.654Z,100600.47
2023-01-05T23:26:21.596Z,100605.94
2023-01-05T23:28:50.601Z,100590.81
2023-01-05T23:31:20.309Z,100612.03
2023-01-05T23:33:50.143Z,100603.84
2023-01-05T23:36:20.071Z,100620.22
2023-01-05T23:38:48.943Z,100615.81
2023-01-05T23:41:19.764Z,100597.94
2023-01-05T23:43:48.547Z,100614.44
2023-01-05T23:46:20.385Z,100621.06
2023-01-05T23:48:49.976Z,100622.03
2023-01-05T23:51:19.308Z,100619.47
2023-01-05T23:53:49.165Z,100623.28
2023-01-05T23:56:21.908Z,100623.19
2023-01-05T23:58:56.588Z,100612.47
